sensor_id;sensor_type;location;lat;lon;timestamp;P1;durP1;ratioP1;P2;durP2;ratioP2
76986;SDS011;65922;50.086;8.598;2024-02-15T00:00:54;5.6;;;12;;
76986;SDS011;65922;50.086;8.598;2024-02-15T00:01:54;6.6;;;12.6;;
76986;SDS011;65922;50.086;8.598;2024-02-15T00:02:54;6.5;;;13;;
76986;SDS011;65922;50.086;8.598;2024-02-15T00:03:54;6.5;;;13.7;;
76986;SDS011;65922;50.086;8.598;2024-02-15T00:04:54;7.6;;;13.2;;
76986;SDS011;65922;50.086;8.598;2024-02-15T00:05:54;6.9;;;14.1;;
76986;SDS011;65922;50.086;8.598;2024-02-15T00:06:54;7.5;;;14.4;;
76986;SDS011;65922;50.086;8.598;2024-02-15T00:07:54;6.4;;;10.4;;
76986;SDS011;65922;50.086;8.598;2024-02-15T00:08:54;6.3;;;13.1;;
76986;SDS011;65922;50.086;8.598;2024-02-15T00:09:54;8.1;;;20.6;;
76986;SDS011;65922;50.086;8.598;2024-02-15T00:10:54;7;;;13.6;;
76986;SDS011;65922;50.086;8.598;2024-02-15T00:11:54;6.7;;;12.3;;
76986;SDS011;65922;50.086;8.598;2024-02-15T00:12:54;6.9;;;12.1;;
76986;SDS011;65922;50.086;8.598;2024-02-15T00:13:54;6.5;;;13.3;;
76986;SDS011;65922;50.086;8.598;2024-02-15T00:14:54;5.5;;;15.2;;
76986;SDS011;65922;50.086;8.598;2024-02-15T00:15:54;6.8;;;14.2;;
76986;SDS011;65922;50.086;8.598;2024-02-15T00:16:54;6.6;;;16.2;;
76986;SDS011;65922;50.086;8.598;2024-02-15T00:17:54;6.2;;;16.4;;
76986;SDS011;65922;50.086;8.598;2024-02-15T00:18:55;7.2;;;15.9;;
76986;SDS011;65922;50.086;8.598;2024-02-15T00:19:56;8.3;;;16.2;;
76986;SDS011;65922;50.086;8.598;2024-02-15T00:20:54;7.1;;;15.3;;
76986;SDS011;65922;50.086;8.598;2024-02-15T00:21:54;6.8;;;14.6;;
76986;SDS011;65922;50.086;8.598;2024-02-15T00:22:54;6.4;;;12.3;;
76986;SDS011;65922;50.086;8.598;2024-02-15T00:23:54;6.3;;;12.7;;
76986;SDS011;65922;50.086;8.598;2024-02-15T00:24:54;5.3;;;13.9;;
76986;SDS011;65922;50.086;8.598;2024-02-15T00:25:59;5.4;;;12;;
76986;SDS011;65922;50.086;8.598;2024-02-15T00:26:54;6.6;;;12.3;;
76986;SDS011;65922;50.086;8.598;2024-02-15T00:27:54;5.4;;;8.7;;
76986;SDS011;65922;50.086;8.598;2024-02-15T00:28:54;5.8;;;13;;
76986;SDS011;65922;50.086;8.598;2024-02-15T00:29:54;5.7;;;13.1;;
76986;SDS011;65922;50.086;8.598;2024-02-15T00:30:54;6.2;;;11;;
76986;SDS011;65922;50.086;8.598;2024-02-15T00:31:54;6;;;11.6;;
76986;SDS011;65922;50.086;8.598;2024-02-15T00:32:54;6.5;;;11.4;;
76986;SDS011;65922;50.086;8.598;2024-02-15T00:33:54;6.9;;;13.7;;
76986;SDS011;65922;50.086;8.598;2024-02-15T00:34:54;5.7;;;10.5;;
76986;SDS011;65922;50.086;8.598;2024-02-15T00:35:54;4.9;;;8.7;;
76986;SDS011;65922;50.086;8.598;2024-02-15T00:36:54;7.3;;;18;;
76986;SDS011;65922;50.086;8.598;2024-02-15T00:37:54;4.4;;;12.3;;
76986;SDS011;65922;50.086;8.598;2024-02-15T00:38:54;6;;;11.8;;
76986;SDS011;65922;50.086;8.598;2024-02-15T00:39:54;5.6;;;12;;
76986;SDS011;65922;50.086;8.598;2024-02-15T00:40:54;7;;;12.8;;
76986;SDS011;65922;50.086;8.598;2024-02-15T00:41:54;5;;;10.9;;
76986;SDS011;65922;50.086;8.598;2024-02-15T00:42:54;4.4;;;10.8;;
76986;SDS011;65922;50.086;8.598;2024-02-15T00:43:54;6.3;;;12.4;;
76986;SDS011;65922;50.086;8.598;2024-02-15T00:44:54;5.5;;;12.9;;
76986;SDS011;65922;50.086;8.598;2024-02-15T00:45:54;5.1;;;13.2;;
76986;SDS011;65922;50.086;8.598;2024-02-15T00:46:54;4.9;;;7.8;;
76986;SDS011;65922;50.086;8.598;2024-02-15T00:47:54;5.1;;;12.3;;
76986;SDS011;65922;50.086;8.598;2024-02-15T00:48:54;7;;;18.5;;
76986;SDS011;65922;50.086;8.598;2024-02-15T00:49:54;7;;;11.5;;
76986;SDS011;65922;50.086;8.598;2024-02-15T00:50:54;5.1;;;12.3;;
76986;SDS011;65922;50.086;8.598;2024-02-15T00:51:54;5.8;;;10.5;;
76986;SDS011;65922;50.086;8.598;2024-02-15T00:52:54;5;;;10.1;;
76986;SDS011;65922;50.086;8.598;2024-02-15T00:53:54;5.4;;;11.1;;
76986;SDS011;65922;50.086;8.598;2024-02-15T00:54:54;6.2;;;13.4;;
76986;SDS011;65922;50.086;8.598;2024-02-15T00:55:55;5.1;;;10.1;;
76986;SDS011;65922;50.086;8.598;2024-02-15T00:56:54;4.4;;;7.8;;
76986;SDS011;65922;50.086;8.598;2024-02-15T00:57:54;5.5;;;10.7;;
76986;SDS011;65922;50.086;8.598;2024-02-15T00:58:54;4.7;;;8.2;;
76986;SDS011;65922;50.086;8.598;2024-02-15T00:59:54;5.3;;;11.7;;
76986;SDS011;65922;50.086;8.598;2024-02-15T01:00:54;5;;;15.6;;
76986;SDS011;65922;50.086;8.598;2024-02-15T01:01:54;4.9;;;9.1;;
76986;SDS011;65922;50.086;8.598;2024-02-15T01:02:55;5;;;10;;
76986;SDS011;65922;50.086;8.598;2024-02-15T01:03:54;4.9;;;9.3;;
76986;SDS011;65922;50.086;8.598;2024-02-15T01:04:54;4.7;;;6.8;;
76986;SDS011;65922;50.086;8.598;2024-02-15T01:05:54;9.2;;;10.5;;
76986;SDS011;65922;50.086;8.598;2024-02-15T01:06:54;4.9;;;9.1;;
76986;SDS011;65922;50.086;8.598;2024-02-15T01:07:54;5.5;;;11.1;;
76986;SDS011;65922;50.086;8.598;2024-02-15T01:08:54;5.8;;;11.9;;
76986;SDS011;65922;50.086;8.598;2024-02-15T01:09:54;4.6;;;10.3;;
76986;SDS011;65922;50.086;8.598;2024-02-15T01:10:54;5.9;;;10.6;;
76986;SDS011;65922;50.086;8.598;2024-02-15T01:11:54;6.2;;;9.9;;
76986;SDS011;65922;50.086;8.598;2024-02-15T01:12:54;5.6;;;11.1;;
76986;SDS011;65922;50.086;8.598;2024-02-15T01:13:54;4.4;;;8.2;;
76986;SDS011;65922;50.086;8.598;2024-02-15T01:14:54;4.7;;;11.3;;
76986;SDS011;65922;50.086;8.598;2024-02-15T01:15:54;5.3;;;10.9;;
76986;SDS011;65922;50.086;8.598;2024-02-15T01:16:54;5.1;;;9.3;;
76986;SDS011;65922;50.086;8.598;2024-02-15T01:17:54;4.3;;;7.5;;
76986;SDS011;65922;50.086;8.598;2024-02-15T01:18:54;5.7;;;9.4;;
76986;SDS011;65922;50.086;8.598;2024-02-15T01:19:54;5.4;;;13;;
76986;SDS011;65922;50.086;8.598;2024-02-15T01:20:54;5.2;;;13.1;;
76986;SDS011;65922;50.086;8.598;2024-02-15T01:21:55;4.9;;;9;;
76986;SDS011;65922;50.086;8.598;2024-02-15T01:22:54;5.2;;;11.1;;
76986;SDS011;65922;50.086;8.598;2024-02-15T01:23:54;5.1;;;10.1;;
76986;SDS011;65922;50.086;8.598;2024-02-15T01:24:56;4.4;;;12.9;;
76986;SDS011;65922;50.086;8.598;2024-02-15T01:25:54;7.9;;;11.3;;
76986;SDS011;65922;50.086;8.598;2024-02-15T01:26:54;4.7;;;8.6;;
76986;SDS011;65922;50.086;8.598;2024-02-15T01:27:54;4;;;10.2;;
76986;SDS011;65922;50.086;8.598;2024-02-15T01:28:54;4.6;;;12.3;;
76986;SDS011;65922;50.086;8.598;2024-02-15T01:29:54;4.5;;;8.7;;
76986;SDS011;65922;50.086;8.598;2024-02-15T01:30:54;6;;;8.1;;
76986;SDS011;65922;50.086;8.598;2024-02-15T01:31:54;5.8;;;10.7;;
76986;SDS011;65922;50.086;8.598;2024-02-15T01:32:54;3.7;;;8.3;;
76986;SDS011;65922;50.086;8.598;2024-02-15T01:33:54;3.8;;;9.9;;
76986;SDS011;65922;50.086;8.598;2024-02-15T01:34:54;4.7;;;9.4;;
76986;SDS011;65922;50.086;8.598;2024-02-15T01:35:54;4.3;;;8.3;;
76986;SDS011;65922;50.086;8.598;2024-02-15T01:36:54;5.3;;;9.3;;
76986;SDS011;65922;50.086;8.598;2024-02-15T01:37:54;4.5;;;8.4;;
76986;SDS011;65922;50.086;8.598;2024-02-15T01:38:54;4.6;;;8.4;;
76986;SDS011;65922;50.086;8.598;2024-02-15T01:39:54;4.5;;;9.7;;
76986;SDS011;65922;50.086;8.598;2024-02-15T01:40:54;4.1;;;6.5;;
76986;SDS011;65922;50.086;8.598;2024-02-15T01:41:54;4.2;;;6.9;;
76986;SDS011;65922;50.086;8.598;2024-02-15T01:42:54;3.9;;;7.9;;
76986;SDS011;65922;50.086;8.598;2024-02-15T01:43:54;4.1;;;10.4;;
76986;SDS011;65922;50.086;8.598;2024-02-15T01:44:54;4.3;;;9.3;;
76986;SDS011;65922;50.086;8.598;2024-02-15T01:45:55;4.7;;;12.3;;
76986;SDS011;65922;50.086;8.598;2024-02-15T01:46:56;4.1;;;10.8;;
76986;SDS011;65922;50.086;8.598;2024-02-15T01:47:54;5.4;;;11.8;;
76986;SDS011;65922;50.086;8.598;2024-02-15T01:48:54;4.1;;;11.5;;
76986;SDS011;65922;50.086;8.598;2024-02-15T01:49:54;4;;;9.1;;
76986;SDS011;65922;50.086;8.598;2024-02-15T01:50:54;4.1;;;7.9;;
76986;SDS011;65922;50.086;8.598;2024-02-15T01:51:54;3.7;;;8.3;;
76986;SDS011;65922;50.086;8.598;2024-02-15T01:52:54;4.4;;;13.7;;
76986;SDS011;65922;50.086;8.598;2024-02-15T01:53:54;4.9;;;8.6;;
76986;SDS011;65922;50.086;8.598;2024-02-15T01:54:54;4.6;;;8.1;;
76986;SDS011;65922;50.086;8.598;2024-02-15T01:55:54;4.6;;;11;;
76986;SDS011;65922;50.086;8.598;2024-02-15T01:56:54;3.1;;;6.3;;
76986;SDS011;65922;50.086;8.598;2024-02-15T01:57:54;4.2;;;8.1;;
76986;SDS011;65922;50.086;8.598;2024-02-15T01:58:54;3;;;6.4;;
76986;SDS011;65922;50.086;8.598;2024-02-15T01:59:54;3.8;;;8.2;;
76986;SDS011;65922;50.086;8.598;2024-02-15T02:00:54;4.9;;;11.1;;
76986;SDS011;65922;50.086;8.598;2024-02-15T02:01:54;3.3;;;13.3;;
76986;SDS011;65922;50.086;8.598;2024-02-15T02:02:54;4.8;;;11.2;;
76986;SDS011;65922;50.086;8.598;2024-02-15T02:03:54;3.8;;;9;;
76986;SDS011;65922;50.086;8.598;2024-02-15T02:04:54;3.6;;;9.7;;
76986;SDS011;65922;50.086;8.598;2024-02-15T02:05:54;3.4;;;9.9;;
76986;SDS011;65922;50.086;8.598;2024-02-15T02:06:54;3.3;;;6.4;;
76986;SDS011;65922;50.086;8.598;2024-02-15T02:07:54;3.6;;;8.2;;
76986;SDS011;65922;50.086;8.598;2024-02-15T02:08:54;4.4;;;8.5;;
76986;SDS011;65922;50.086;8.598;2024-02-15T02:09:54;4;;;8;;
76986;SDS011;65922;50.086;8.598;2024-02-15T02:10:54;4.4;;;9;;
76986;SDS011;65922;50.086;8.598;2024-02-15T02:11:54;3.8;;;6.9;;
76986;SDS011;65922;50.086;8.598;2024-02-15T02:12:54;4.8;;;8.9;;
76986;SDS011;65922;50.086;8.598;2024-02-15T02:13:54;3;;;6.3;;
76986;SDS011;65922;50.086;8.598;2024-02-15T02:14:54;4.3;;;7.5;;
76986;SDS011;65922;50.086;8.598;2024-02-15T02:15:54;3.5;;;7.4;;
76986;SDS011;65922;50.086;8.598;2024-02-15T02:16:54;3.8;;;6.4;;
76986;SDS011;65922;50.086;8.598;2024-02-15T02:17:56;3;;;7;;
76986;SDS011;65922;50.086;8.598;2024-02-15T02:18:54;3.2;;;6.2;;
76986;SDS011;65922;50.086;8.598;2024-02-15T02:19:54;3.7;;;6.2;;
76986;SDS011;65922;50.086;8.598;2024-02-15T02:20:54;4.6;;;10.3;;
76986;SDS011;65922;50.086;8.598;2024-02-15T02:21:54;3.7;;;5.6;;
76986;SDS011;65922;50.086;8.598;2024-02-15T02:22:56;2.7;;;4.9;;
76986;SDS011;65922;50.086;8.598;2024-02-15T02:23:55;3.8;;;7.7;;
76986;SDS011;65922;50.086;8.598;2024-02-15T02:24:56;5.2;;;7.4;;
76986;SDS011;65922;50.086;8.598;2024-02-15T02:25:55;3.6;;;5.4;;
76986;SDS011;65922;50.086;8.598;2024-02-15T02:26:54;3.7;;;10.7;;
76986;SDS011;65922;50.086;8.598;2024-02-15T02:27:54;2.8;;;5.7;;
76986;SDS011;65922;50.086;8.598;2024-02-15T02:28:54;4.2;;;9.9;;
76986;SDS011;65922;50.086;8.598;2024-02-15T02:29:54;2.6;;;5.1;;
76986;SDS011;65922;50.086;8.598;2024-02-15T02:30:54;3.1;;;5.4;;
76986;SDS011;65922;50.086;8.598;2024-02-15T02:31:54;4;;;6.6;;
76986;SDS011;65922;50.086;8.598;2024-02-15T02:32:54;2.7;;;6.9;;
76986;SDS011;65922;50.086;8.598;2024-02-15T02:33:54;3.4;;;6.1;;
76986;SDS011;65922;50.086;8.598;2024-02-15T02:34:55;4.3;;;6.9;;
76986;SDS011;65922;50.086;8.598;2024-02-15T02:35:54;3.4;;;6.8;;
76986;SDS011;65922;50.086;8.598;2024-02-15T02:36:54;5.7;;;8.9;;
76986;SDS011;65922;50.086;8.598;2024-02-15T02:37:54;4.4;;;8;;
76986;SDS011;65922;50.086;8.598;2024-02-15T02:38:54;3.7;;;8.8;;
76986;SDS011;65922;50.086;8.598;2024-02-15T02:39:55;2.9;;;6.9;;
76986;SDS011;65922;50.086;8.598;2024-02-15T02:40:54;3.7;;;5.5;;
76986;SDS011;65922;50.086;8.598;2024-02-15T02:41:54;3.7;;;5.9;;
76986;SDS011;65922;50.086;8.598;2024-02-15T02:42:55;4.6;;;8.4;;
76986;SDS011;65922;50.086;8.598;2024-02-15T02:43:55;3.8;;;7.4;;
76986;SDS011;65922;50.086;8.598;2024-02-15T02:44:54;3.6;;;5.9;;
76986;SDS011;65922;50.086;8.598;2024-02-15T02:45:54;4.5;;;7.2;;
76986;SDS011;65922;50.086;8.598;2024-02-15T02:46:54;4.4;;;12;;
76986;SDS011;65922;50.086;8.598;2024-02-15T02:47:54;2.9;;;5.8;;
76986;SDS011;65922;50.086;8.598;2024-02-15T02:48:54;3.7;;;7.5;;
76986;SDS011;65922;50.086;8.598;2024-02-15T02:49:54;4;;;7.8;;
76986;SDS011;65922;50.086;8.598;2024-02-15T02:50:54;4.4;;;8.9;;
76986;SDS011;65922;50.086;8.598;2024-02-15T02:51:54;2.9;;;7.5;;
76986;SDS011;65922;50.086;8.598;2024-02-15T02:52:54;4;;;9;;
76986;SDS011;65922;50.086;8.598;2024-02-15T02:53:54;4.1;;;7.7;;
76986;SDS011;65922;50.086;8.598;2024-02-15T02:54:54;3.5;;;10.9;;
76986;SDS011;65922;50.086;8.598;2024-02-15T02:55:55;3.4;;;7.7;;
76986;SDS011;65922;50.086;8.598;2024-02-15T02:56:54;3.5;;;8.1;;
76986;SDS011;65922;50.086;8.598;2024-02-15T02:57:54;2.8;;;6.6;;
76986;SDS011;65922;50.086;8.598;2024-02-15T02:58:54;3.6;;;6.1;;
76986;SDS011;65922;50.086;8.598;2024-02-15T02:59:54;4.5;;;9.7;;
76986;SDS011;65922;50.086;8.598;2024-02-15T03:00:54;4.4;;;7;;
76986;SDS011;65922;50.086;8.598;2024-02-15T03:01:54;4.6;;;9;;
76986;SDS011;65922;50.086;8.598;2024-02-15T03:02:54;4.7;;;9.4;;
76986;SDS011;65922;50.086;8.598;2024-02-15T03:03:55;3.5;;;7.3;;
76986;SDS011;65922;50.086;8.598;2024-02-15T03:04:54;4.5;;;8.4;;
76986;SDS011;65922;50.086;8.598;2024-02-15T03:05:54;3.4;;;8.8;;
76986;SDS011;65922;50.086;8.598;2024-02-15T03:06:54;4.2;;;15.3;;
76986;SDS011;65922;50.086;8.598;2024-02-15T03:07:54;4.7;;;11.6;;
76986;SDS011;65922;50.086;8.598;2024-02-15T03:08:54;3.2;;;6.2;;
76986;SDS011;65922;50.086;8.598;2024-02-15T03:09:54;4.5;;;8.6;;
76986;SDS011;65922;50.086;8.598;2024-02-15T03:10:54;5.7;;;10.3;;
76986;SDS011;65922;50.086;8.598;2024-02-15T03:11:55;5.4;;;8.7;;
76986;SDS011;65922;50.086;8.598;2024-02-15T03:12:54;3.5;;;10.8;;
76986;SDS011;65922;50.086;8.598;2024-02-15T03:13:54;4.6;;;8.5;;
76986;SDS011;65922;50.086;8.598;2024-02-15T03:14:54;3.1;;;5.9;;
76986;SDS011;65922;50.086;8.598;2024-02-15T03:15:54;3.7;;;6.9;;
76986;SDS011;65922;50.086;8.598;2024-02-15T03:16:55;4.7;;;10.2;;
76986;SDS011;65922;50.086;8.598;2024-02-15T03:17:54;3.9;;;7.9;;
76986;SDS011;65922;50.086;8.598;2024-02-15T03:18:54;3.1;;;7.1;;
76986;SDS011;65922;50.086;8.598;2024-02-15T03:19:54;4.8;;;7.8;;
76986;SDS011;65922;50.086;8.598;2024-02-15T03:20:54;4.2;;;8.2;;
76986;SDS011;65922;50.086;8.598;2024-02-15T03:21:54;4.1;;;7.8;;
76986;SDS011;65922;50.086;8.598;2024-02-15T03:22:55;4.4;;;7.8;;
76986;SDS011;65922;50.086;8.598;2024-02-15T03:23:54;4.2;;;6.6;;
76986;SDS011;65922;50.086;8.598;2024-02-15T03:24:54;4.1;;;8.5;;
76986;SDS011;65922;50.086;8.598;2024-02-15T03:25:54;3.7;;;7.2;;
76986;SDS011;65922;50.086;8.598;2024-02-15T03:26:54;3.4;;;6.2;;
76986;SDS011;65922;50.086;8.598;2024-02-15T03:27:55;4;;;11.7;;
76986;SDS011;65922;50.086;8.598;2024-02-15T03:28:54;3.5;;;6.4;;
76986;SDS011;65922;50.086;8.598;2024-02-15T03:29:54;3.4;;;6.6;;
76986;SDS011;65922;50.086;8.598;2024-02-15T03:30:54;3.4;;;9.9;;
76986;SDS011;65922;50.086;8.598;2024-02-15T03:31:54;6.1;;;10.2;;
76986;SDS011;65922;50.086;8.598;2024-02-15T03:32:54;5.2;;;7.7;;
76986;SDS011;65922;50.086;8.598;2024-02-15T03:33:54;5;;;9;;
76986;SDS011;65922;50.086;8.598;2024-02-15T03:34:54;3.6;;;8.6;;
76986;SDS011;65922;50.086;8.598;2024-02-15T03:35:54;4.3;;;9;;
76986;SDS011;65922;50.086;8.598;2024-02-15T03:36:54;4.7;;;8.9;;
76986;SDS011;65922;50.086;8.598;2024-02-15T03:37:54;4.8;;;10.8;;
76986;SDS011;65922;50.086;8.598;2024-02-15T03:38:54;3.7;;;6.6;;
76986;SDS011;65922;50.086;8.598;2024-02-15T03:39:54;5.6;;;11.4;;
76986;SDS011;65922;50.086;8.598;2024-02-15T03:40:54;4.5;;;12.3;;
76986;SDS011;65922;50.086;8.598;2024-02-15T03:41:55;4.6;;;12.2;;
76986;SDS011;65922;50.086;8.598;2024-02-15T03:42:54;4.5;;;8.1;;
76986;SDS011;65922;50.086;8.598;2024-02-15T03:43:54;4.7;;;12.6;;
76986;SDS011;65922;50.086;8.598;2024-02-15T03:44:54;5.2;;;9;;
76986;SDS011;65922;50.086;8.598;2024-02-15T03:45:54;4.4;;;9.6;;
76986;SDS011;65922;50.086;8.598;2024-02-15T03:46:54;5.1;;;13;;
76986;SDS011;65922;50.086;8.598;2024-02-15T03:47:54;4.5;;;8.9;;
76986;SDS011;65922;50.086;8.598;2024-02-15T03:48:54;4.9;;;10.6;;
76986;SDS011;65922;50.086;8.598;2024-02-15T03:49:54;4.8;;;12.9;;
76986;SDS011;65922;50.086;8.598;2024-02-15T03:50:54;4.7;;;10.8;;
76986;SDS011;65922;50.086;8.598;2024-02-15T03:51:54;4.2;;;7.5;;
76986;SDS011;65922;50.086;8.598;2024-02-15T03:52:54;5.1;;;14.4;;
76986;SDS011;65922;50.086;8.598;2024-02-15T03:53:54;4.8;;;7.8;;
76986;SDS011;65922;50.086;8.598;2024-02-15T03:54:54;4;;;15.9;;
76986;SDS011;65922;50.086;8.598;2024-02-15T03:55:54;4.1;;;9.9;;
76986;SDS011;65922;50.086;8.598;2024-02-15T03:56:54;4.9;;;14.5;;
76986;SDS011;65922;50.086;8.598;2024-02-15T03:57:54;5.8;;;11.3;;
76986;SDS011;65922;50.086;8.598;2024-02-15T03:58:54;3.7;;;6.1;;
76986;SDS011;65922;50.086;8.598;2024-02-15T03:59:54;5.3;;;13;;
76986;SDS011;65922;50.086;8.598;2024-02-15T04:00:54;4;;;7.8;;
76986;SDS011;65922;50.086;8.598;2024-02-15T04:01:54;4.1;;;7.4;;
76986;SDS011;65922;50.086;8.598;2024-02-15T04:02:54;3.9;;;13.4;;
76986;SDS011;65922;50.086;8.598;2024-02-15T04:03:54;4.1;;;7.2;;
76986;SDS011;65922;50.086;8.598;2024-02-15T04:04:54;4.5;;;8.5;;
76986;SDS011;65922;50.086;8.598;2024-02-15T04:05:54;5;;;7.6;;
76986;SDS011;65922;50.086;8.598;2024-02-15T04:06:54;3.7;;;8.3;;
76986;SDS011;65922;50.086;8.598;2024-02-15T04:07:54;4.1;;;8.1;;
76986;SDS011;65922;50.086;8.598;2024-02-15T04:08:54;3.7;;;8.6;;
76986;SDS011;65922;50.086;8.598;2024-02-15T04:09:54;3.3;;;7.4;;
76986;SDS011;65922;50.086;8.598;2024-02-15T04:10:54;4.3;;;12.1;;
76986;SDS011;65922;50.086;8.598;2024-02-15T04:11:54;3.9;;;12.4;;
76986;SDS011;65922;50.086;8.598;2024-02-15T04:12:54;4.6;;;8.5;;
76986;SDS011;65922;50.086;8.598;2024-02-15T04:13:54;3.1;;;8;;
76986;SDS011;65922;50.086;8.598;2024-02-15T04:14:54;3;;;8.3;;
76986;SDS011;65922;50.086;8.598;2024-02-15T04:15:54;5.9;;;8.5;;
76986;SDS011;65922;50.086;8.598;2024-02-15T04:16:54;2.7;;;9;;
76986;SDS011;65922;50.086;8.598;2024-02-15T04:17:54;3.6;;;7;;
76986;SDS011;65922;50.086;8.598;2024-02-15T04:18:54;3.1;;;6.5;;
76986;SDS011;65922;50.086;8.598;2024-02-15T04:19:54;2.8;;;7;;
76986;SDS011;65922;50.086;8.598;2024-02-15T04:20:54;3.8;;;6.3;;
76986;SDS011;65922;50.086;8.598;2024-02-15T04:21:54;2.8;;;5.2;;
76986;SDS011;65922;50.086;8.598;2024-02-15T04:22:54;2.3;;;6.1;;
76986;SDS011;65922;50.086;8.598;2024-02-15T04:23:54;3.1;;;8.2;;
76986;SDS011;65922;50.086;8.598;2024-02-15T04:24:54;4.1;;;7.9;;
76986;SDS011;65922;50.086;8.598;2024-02-15T04:25:54;4.2;;;6.5;;
76986;SDS011;65922;50.086;8.598;2024-02-15T04:26:54;3.9;;;7.1;;
76986;SDS011;65922;50.086;8.598;2024-02-15T04:27:54;2.9;;;8.1;;
76986;SDS011;65922;50.086;8.598;2024-02-15T04:28:54;3.4;;;6.9;;
76986;SDS011;65922;50.086;8.598;2024-02-15T04:29:54;2.9;;;5.2;;
76986;SDS011;65922;50.086;8.598;2024-02-15T04:30:54;3.2;;;7.1;;
76986;SDS011;65922;50.086;8.598;2024-02-15T04:31:54;3.9;;;9.5;;
76986;SDS011;65922;50.086;8.598;2024-02-15T04:32:54;3.4;;;7.6;;
76986;SDS011;65922;50.086;8.598;2024-02-15T04:33:54;3.2;;;5.8;;
76986;SDS011;65922;50.086;8.598;2024-02-15T04:34:54;4;;;9.2;;
76986;SDS011;65922;50.086;8.598;2024-02-15T04:35:54;4.2;;;9.4;;
76986;SDS011;65922;50.086;8.598;2024-02-15T04:36:54;5.1;;;6.9;;
76986;SDS011;65922;50.086;8.598;2024-02-15T04:37:54;4.2;;;12.9;;
76986;SDS011;65922;50.086;8.598;2024-02-15T04:38:54;2.9;;;7.8;;
76986;SDS011;65922;50.086;8.598;2024-02-15T04:39:54;2.5;;;6.3;;
76986;SDS011;65922;50.086;8.598;2024-02-15T04:40:54;3.2;;;10.5;;
76986;SDS011;65922;50.086;8.598;2024-02-15T04:41:54;3.4;;;6;;
76986;SDS011;65922;50.086;8.598;2024-02-15T04:42:54;3.8;;;8.8;;
76986;SDS011;65922;50.086;8.598;2024-02-15T04:43:54;2.9;;;7.9;;
76986;SDS011;65922;50.086;8.598;2024-02-15T04:44:54;3.5;;;6.7;;
76986;SDS011;65922;50.086;8.598;2024-02-15T04:45:54;3.9;;;9.5;;
76986;SDS011;65922;50.086;8.598;2024-02-15T04:46:54;3.4;;;7.3;;
76986;SDS011;65922;50.086;8.598;2024-02-15T04:47:54;3.4;;;6.9;;
76986;SDS011;65922;50.086;8.598;2024-02-15T04:48:54;5.1;;;9.8;;
76986;SDS011;65922;50.086;8.598;2024-02-15T04:49:54;4.5;;;7.3;;
76986;SDS011;65922;50.086;8.598;2024-02-15T04:50:54;3.9;;;6.7;;
76986;SDS011;65922;50.086;8.598;2024-02-15T04:51:54;3.6;;;16.6;;
76986;SDS011;65922;50.086;8.598;2024-02-15T04:52:54;2.2;;;5.9;;
76986;SDS011;65922;50.086;8.598;2024-02-15T04:53:54;2;;;3.1;;
76986;SDS011;65922;50.086;8.598;2024-02-15T04:54:54;3;;;12.5;;
76986;SDS011;65922;50.086;8.598;2024-02-15T04:55:54;3.1;;;6.9;;
76986;SDS011;65922;50.086;8.598;2024-02-15T04:56:54;2.3;;;6;;
76986;SDS011;65922;50.086;8.598;2024-02-15T04:57:54;3.3;;;9.1;;
76986;SDS011;65922;50.086;8.598;2024-02-15T04:58:54;2.6;;;6.3;;
76986;SDS011;65922;50.086;8.598;2024-02-15T04:59:54;3.3;;;11.5;;
76986;SDS011;65922;50.086;8.598;2024-02-15T05:00:54;3;;;5.2;;
76986;SDS011;65922;50.086;8.598;2024-02-15T05:01:54;2.8;;;5.6;;
76986;SDS011;65922;50.086;8.598;2024-02-15T05:02:54;3.2;;;6.4;;
76986;SDS011;65922;50.086;8.598;2024-02-15T05:03:54;2.7;;;9.4;;
76986;SDS011;65922;50.086;8.598;2024-02-15T05:04:54;2.9;;;5.9;;
76986;SDS011;65922;50.086;8.598;2024-02-15T05:05:55;3;;;15;;
76986;SDS011;65922;50.086;8.598;2024-02-15T05:06:54;3.4;;;4.9;;
76986;SDS011;65922;50.086;8.598;2024-02-15T05:07:54;4.1;;;11.8;;
76986;SDS011;65922;50.086;8.598;2024-02-15T05:08:54;3.6;;;7.4;;
76986;SDS011;65922;50.086;8.598;2024-02-15T05:09:54;4.4;;;11.9;;
76986;SDS011;65922;50.086;8.598;2024-02-15T05:10:54;4.2;;;7.2;;
76986;SDS011;65922;50.086;8.598;2024-02-15T05:11:54;4.6;;;6.6;;
76986;SDS011;65922;50.086;8.598;2024-02-15T05:12:54;3.1;;;5.2;;
76986;SDS011;65922;50.086;8.598;2024-02-15T05:13:54;3.6;;;7.8;;
76986;SDS011;65922;50.086;8.598;2024-02-15T05:14:54;3.7;;;10.3;;
76986;SDS011;65922;50.086;8.598;2024-02-15T05:15:54;4.3;;;8.5;;
76986;SDS011;65922;50.086;8.598;2024-02-15T05:16:54;3.8;;;7.2;;
76986;SDS011;65922;50.086;8.598;2024-02-15T05:17:54;2.9;;;6.5;;
76986;SDS011;65922;50.086;8.598;2024-02-15T05:18:54;3.8;;;6.6;;
76986;SDS011;65922;50.086;8.598;2024-02-15T05:19:54;3.6;;;6.2;;
76986;SDS011;65922;50.086;8.598;2024-02-15T05:20:54;4.7;;;8.2;;
76986;SDS011;65922;50.086;8.598;2024-02-15T05:21:54;3.9;;;9.1;;
76986;SDS011;65922;50.086;8.598;2024-02-15T05:22:54;4.2;;;8;;
76986;SDS011;65922;50.086;8.598;2024-02-15T05:23:54;3.2;;;6.6;;
76986;SDS011;65922;50.086;8.598;2024-02-15T05:24:54;4.3;;;10.4;;
76986;SDS011;65922;50.086;8.598;2024-02-15T05:25:54;4.8;;;9.2;;
76986;SDS011;65922;50.086;8.598;2024-02-15T05:26:54;4;;;9.2;;
76986;SDS011;65922;50.086;8.598;2024-02-15T05:27:54;4.1;;;14.6;;
76986;SDS011;65922;50.086;8.598;2024-02-15T05:28:54;4.9;;;8.2;;
76986;SDS011;65922;50.086;8.598;2024-02-15T05:29:54;4.4;;;10.7;;
76986;SDS011;65922;50.086;8.598;2024-02-15T05:31:08;3.2;;;6;;
76986;SDS011;65922;50.086;8.598;2024-02-15T05:31:54;4.2;;;7;;
76986;SDS011;65922;50.086;8.598;2024-02-15T05:32:55;3.7;;;6.3;;
76986;SDS011;65922;50.086;8.598;2024-02-15T05:33:54;5.9;;;10.1;;
76986;SDS011;65922;50.086;8.598;2024-02-15T05:34:54;4.4;;;7.7;;
76986;SDS011;65922;50.086;8.598;2024-02-15T05:35:54;3.2;;;6.2;;
76986;SDS011;65922;50.086;8.598;2024-02-15T05:36:54;3.5;;;10.3;;
76986;SDS011;65922;50.086;8.598;2024-02-15T05:37:54;5.5;;;8.4;;
76986;SDS011;65922;50.086;8.598;2024-02-15T05:38:54;3.1;;;10.7;;
76986;SDS011;65922;50.086;8.598;2024-02-15T05:39:54;3.6;;;8.8;;
76986;SDS011;65922;50.086;8.598;2024-02-15T05:40:54;3.7;;;6.7;;
76986;SDS011;65922;50.086;8.598;2024-02-15T05:41:54;3.5;;;11.3;;
76986;SDS011;65922;50.086;8.598;2024-02-15T05:42:55;4.3;;;8.2;;
76986;SDS011;65922;50.086;8.598;2024-02-15T05:43:54;3.9;;;10.2;;
76986;SDS011;65922;50.086;8.598;2024-02-15T05:44:54;3;;;4.8;;
76986;SDS011;65922;50.086;8.598;2024-02-15T05:45:54;4.6;;;11.2;;
76986;SDS011;65922;50.086;8.598;2024-02-15T05:46:54;4.7;;;7.3;;
76986;SDS011;65922;50.086;8.598;2024-02-15T05:47:54;4.1;;;8.5;;
76986;SDS011;65922;50.086;8.598;2024-02-15T05:48:54;4.6;;;7;;
76986;SDS011;65922;50.086;8.598;2024-02-15T05:49:54;5.3;;;10.3;;
76986;SDS011;65922;50.086;8.598;2024-02-15T05:50:54;3.1;;;8.5;;
76986;SDS011;65922;50.086;8.598;2024-02-15T05:51:54;3.5;;;6.1;;
76986;SDS011;65922;50.086;8.598;2024-02-15T05:52:54;4;;;7.9;;
76986;SDS011;65922;50.086;8.598;2024-02-15T05:53:54;3.4;;;9.9;;
76986;SDS011;65922;50.086;8.598;2024-02-15T05:54:54;2.8;;;6.7;;
76986;SDS011;65922;50.086;8.598;2024-02-15T05:55:54;4;;;7;;
76986;SDS011;65922;50.086;8.598;2024-02-15T05:56:54;4.7;;;8.2;;
76986;SDS011;65922;50.086;8.598;2024-02-15T05:57:54;3.4;;;6.3;;
76986;SDS011;65922;50.086;8.598;2024-02-15T05:58:54;3.2;;;8.6;;
76986;SDS011;65922;50.086;8.598;2024-02-15T05:59:54;3.7;;;9.1;;
76986;SDS011;65922;50.086;8.598;2024-02-15T06:00:54;4.3;;;13.9;;
76986;SDS011;65922;50.086;8.598;2024-02-15T06:01:54;3.8;;;9.8;;
76986;SDS011;65922;50.086;8.598;2024-02-15T06:02:54;4.5;;;9.2;;
76986;SDS011;65922;50.086;8.598;2024-02-15T06:03:54;4.4;;;10.6;;
76986;SDS011;65922;50.086;8.598;2024-02-15T06:04:54;4.5;;;13.4;;
76986;SDS011;65922;50.086;8.598;2024-02-15T06:05:54;4;;;7.5;;
76986;SDS011;65922;50.086;8.598;2024-02-15T06:06:54;4.8;;;8.4;;
76986;SDS011;65922;50.086;8.598;2024-02-15T06:07:54;3.5;;;9.5;;
76986;SDS011;65922;50.086;8.598;2024-02-15T06:08:54;3.9;;;10;;
76986;SDS011;65922;50.086;8.598;2024-02-15T06:09:54;3.5;;;7.7;;
76986;SDS011;65922;50.086;8.598;2024-02-15T06:10:54;3.4;;;11.3;;
76986;SDS011;65922;50.086;8.598;2024-02-15T06:11:54;4.8;;;13.6;;
76986;SDS011;65922;50.086;8.598;2024-02-15T06:12:55;4.5;;;8;;